createdAt,value
2023-04-17T00:01:17.749Z,27.90
2023-04-17T00:03:47.328Z,27.45
2023-04-17T00:06:19.027Z,27.10
2023-04-17T00:08:46.779Z,27.92
2023-04-17T00:11:14.436Z,27.42
2023-04-17T00:13:44.016Z,27.35
2023-04-17T00:16:12.770Z,27.70
2023-04-17T00:18:40.688Z,28.37
2023-04-17T00:21:08.481Z,27.08
2023-04-17T00:23:37.589Z,27.90
2023-04-17T00:26:05.382Z,27.58
2023-04-17T00:28:33.760Z,27.30
2023-04-17T00:31:01.534Z,28.05
2023-04-17T00:33:29.226Z,27.70
2023-04-17T00:35:57.174Z,27.65
2023-04-17T00:38:24.905Z,27.23
2023-04-17T00:40:54.033Z,28.50
2023-04-17T00:43:21.711Z,27.42
2023-04-17T00:45:49.735Z,27.35
2023-04-17T00:48:17.992Z,27.02
2023-04-17T00:50:46.284Z,26.95
2023-04-17T00:53:14.448Z,27.63
2023-04-17T00:55:43.193Z,27.25
2023-04-17T00:58:12.724Z,27.73
2023-04-17T01:00:40.461Z,27.48
2023-04-17T01:03:08.493Z,27.98
2023-04-17T01:05:38.306Z,28.13
2023-04-17T01:08:06.645Z,27.63
2023-04-17T01:10:34.331Z,27.70
2023-04-17T01:13:05.873Z,27.85
2023-04-17T01:15:35.642Z,28.42
2023-04-17T01:18:03.643Z,29.00
2023-04-17T01:20:31.462Z,29.67
2023-04-17T01:22:59.312Z,30.05
2023-04-17T01:25:29.209Z,30.15
2023-04-17T01:27:57.288Z,30.17
2023-04-17T01:30:25.431Z,30.00
2023-04-17T01:32:55.038Z,30.65
2023-04-17T01:35:23.035Z,30.88
2023-04-17T01:37:50.766Z,29.00
2023-04-17T01:40:18.582Z,30.58
2023-04-17T01:42:47.764Z,31.15
2023-04-17T01:45:15.464Z,31.40
2023-04-17T01:47:43.156Z,34.30
2023-04-17T01:50:11.889Z,35.33
2023-04-17T01:52:40.115Z,35.00
2023-04-17T01:55:08.318Z,34.95
2023-04-17T01:57:36.063Z,35.15
2023-04-17T02:00:07.939Z,34.88
2023-04-17T02:02:35.782Z,33.78
2023-04-17T02:05:03.683Z,34.05
2023-04-17T02:07:31.334Z,35.53
2023-04-17T02:09:58.994Z,35.70
2023-04-17T02:12:26.766Z,38.55
2023-04-17T02:14:54.669Z,40.85
2023-04-17T02:17:23.773Z,42.38
2023-04-17T02:19:51.436Z,41.00
2023-04-17T02:22:19.439Z,41.55
2023-04-17T02:24:47.200Z,41.38
2023-04-17T02:27:14.894Z,41.25
2023-04-17T02:29:42.673Z,41.30
2023-04-17T02:32:10.465Z,43.13
2023-04-17T02:34:39.589Z,41.03
2023-04-17T02:37:07.252Z,41.95
2023-04-17T02:39:35.279Z,41.88
2023-04-17T02:42:03.177Z,41.13
2023-04-17T02:44:30.949Z,41.60
2023-04-17T02:46:58.715Z,41.72
2023-04-17T02:49:26.486Z,42.10
2023-04-17T02:51:55.619Z,41.88
2023-04-17T02:54:23.365Z,40.38
2023-04-17T02:56:53.313Z,41.15
2023-04-17T02:59:20.973Z,41.78
2023-04-17T03:01:48.688Z,42.38
2023-04-17T03:04:16.545Z,42.78
2023-04-17T03:06:44.335Z,41.53
2023-04-17T03:09:14.952Z,41.35
2023-04-17T03:11:42.649Z,41.15
2023-04-17T03:14:10.315Z,41.05
2023-04-17T03:16:38.076Z,41.08
2023-04-17T03:19:05.899Z,40.47
2023-04-17T03:21:33.709Z,42.20
2023-04-17T03:24:01.633Z,41.88
2023-04-17T03:26:30.778Z,41.58
2023-04-17T03:28:58.387Z,41.40
2023-04-17T03:31:27.863Z,40.88
2023-04-17T03:33:55.840Z,41.58
2023-04-17T03:36:23.492Z,42.13
2023-04-17T03:38:51.125Z,40.78
2023-04-17T03:41:18.772Z,41.13
2023-04-17T03:43:47.846Z,40.78
2023-04-17T03:46:15.837Z,39.95
2023-04-17T03:48:43.519Z,40.13
2023-04-17T03:51:11.168Z,39.90
2023-04-17T03:53:38.784Z,40.45
2023-04-17T03:56:06.751Z,40.93
2023-04-17T03:58:34.540Z,40.85
2023-04-17T04:01:03.671Z,41.00
2023-04-17T04:03:31.576Z,41.58
2023-04-17T04:05:59.435Z,41.58
2023-04-17T04:08:27.056Z,41.30
2023-04-17T04:10:54.744Z,41.33
2023-04-17T04:13:22.450Z,41.83
2023-04-17T04:15:50.283Z,41.75
2023-04-17T04:18:19.467Z,40.90
2023-04-17T04:20:47.131Z,41.25
2023-04-17T04:23:16.681Z,42.75
2023-04-17T04:25:44.504Z,43.45
2023-04-17T04:28:13.291Z,41.43
2023-04-17T04:30:40.995Z,43.08
2023-04-17T04:33:08.931Z,43.30
2023-04-17T04:35:38.564Z,42.07
2023-04-17T04:38:06.396Z,42.80
2023-04-17T04:40:36.155Z,43.20
2023-04-17T04:43:04.395Z,43.17
2023-04-17T04:45:32.112Z,41.75
2023-04-17T04:47:59.880Z,44.03
2023-04-17T04:50:27.600Z,45.20
2023-04-17T04:52:56.631Z,46.20
2023-04-17T04:55:24.588Z,45.03
2023-04-17T04:57:53.426Z,44.55
2023-04-17T05:00:21.571Z,45.23
2023-04-17T05:02:49.628Z,43.88
2023-04-17T05:05:17.522Z,42.72
2023-04-17T05:07:45.258Z,43.92
2023-04-17T05:10:14.397Z,42.85
2023-04-17T05:12:42.466Z,42.60
2023-04-17T05:15:11.367Z,43.17
2023-04-17T05:17:39.144Z,40.93
2023-04-17T05:20:09.209Z,43.25
2023-04-17T05:22:36.944Z,41.85
2023-04-17T05:25:05.120Z,42.80
2023-04-17T05:27:34.250Z,42.80
2023-04-17T05:30:01.914Z,42.80
2023-04-17T05:32:31.175Z,42.90
2023-04-17T05:34:58.937Z,41.57
2023-04-17T05:37:26.718Z,43.30
2023-04-17T05:39:54.391Z,42.10
2023-04-17T05:42:22.032Z,41.90
2023-04-17T05:44:51.233Z,42.40
2023-04-17T05:47:19.333Z,41.13
2023-04-17T05:49:48.626Z,41.42
2023-04-17T05:52:16.316Z,43.50
2023-04-17T05:54:43.984Z,41.33
2023-04-17T05:57:11.652Z,42.50
2023-04-17T05:59:39.403Z,41.55
2023-04-17T06:02:08.801Z,44.03
2023-04-17T06:04:36.858Z,43.03
2023-04-17T06:07:06.250Z,42.22
2023-04-17T06:09:34.058Z,42.38
2023-04-17T06:12:01.799Z,41.40
2023-04-17T06:14:29.431Z,40.00
2023-04-17T06:16:57.145Z,42.40
2023-04-17T06:19:26.340Z,42.75
2023-04-17T06:21:54.036Z,41.28
2023-04-17T06:24:21.681Z,42.00
2023-04-17T06:26:49.356Z,41.63
2023-04-17T06:29:17.014Z,41.08
2023-04-17T06:31:44.720Z,41.63
2023-04-17T06:34:12.393Z,42.05
2023-04-17T06:36:41.624Z,42.38
2023-04-17T06:39:09.465Z,41.30
2023-04-17T06:41:37.378Z,40.83
2023-04-17T06:44:05.130Z,40.35
2023-04-17T06:46:33.006Z,39.20
2023-04-17T06:49:01.698Z,39.45
2023-04-17T06:51:29.423Z,38.08
2023-04-17T06:53:59.241Z,39.10
2023-04-17T06:56:26.918Z,39.17
2023-04-17T06:58:54.956Z,39.45
2023-04-17T07:01:22.691Z,38.45
2023-04-17T07:03:50.618Z,37.90
2023-04-17T07:06:19.470Z,37.53
2023-04-17T07:08:47.170Z,38.58
2023-04-17T07:11:16.278Z,38.97
2023-04-17T07:13:43.986Z,37.50
2023-04-17T07:16:11.756Z,37.92
2023-04-17T07:18:39.515Z,37.95
2023-04-17T07:21:07.428Z,37.63
2023-04-17T07:23:35.073Z,37.60
2023-04-17T07:26:02.820Z,36.42
2023-04-17T07:28:32.027Z,35.33
2023-04-17T07:30:59.782Z,35.10
2023-04-17T07:33:27.735Z,35.20
2023-04-17T07:35:55.468Z,35.63
2023-04-17T07:38:23.217Z,35.67
2023-04-17T07:40:50.877Z,35.70
2023-04-17T07:43:18.623Z,35.08
2023-04-17T07:45:48.935Z,34.92
2023-04-17T07:48:18.612Z,33.17
2023-04-17T07:50:46.431Z,34.72
2023-04-17T07:53:14.131Z,34.93
2023-04-17T07:55:41.823Z,34.25
2023-04-17T07:58:11.368Z,33.63
2023-04-17T08:00:39.234Z,32.20
2023-04-17T08:03:08.578Z,32.03
2023-04-17T08:05:36.516Z,31.25
2023-04-17T08:08:05.606Z,32.05
2023-04-17T08:10:33.313Z,30.85
2023-04-17T08:13:01.975Z,32.13
2023-04-17T08:15:29.915Z,29.75
2023-04-17T08:17:58.446Z,30.55
2023-04-17T08:20:28.094Z,29.60
2023-04-17T08:22:56.337Z,28.23
2023-04-17T08:25:24.141Z,29.05
2023-04-17T08:27:52.921Z,28.73
2023-04-17T08:30:20.676Z,27.38
2023-04-17T08:32:50.211Z,26.23
2023-04-17T08:35:18.177Z,26.58
2023-04-17T08:37:47.632Z,25.92
2023-04-17T08:40:17.053Z,27.08
2023-04-17T08:42:47.632Z,27.35
2023-04-17T08:45:16.534Z,24.58
2023-04-17T08:47:44.824Z,24.75
2023-04-17T08:50:14.249Z,24.48
2023-04-17T08:52:43.426Z,24.02
2023-04-17T08:55:15.203Z,22.50
2023-04-17T08:57:56.789Z,22.23
2023-04-17T09:00:28.517Z,22.20
2023-04-17T09:02:57.769Z,20.70
2023-04-17T09:05:26.507Z,20.38
2023-04-17T09:08:08.172Z,21.45
2023-04-17T09:10:38.210Z,21.20
2023-04-17T09:13:06.275Z,21.83
2023-04-17T09:15:34.568Z,21.40
2023-04-17T09:18:02.367Z,21.50
2023-04-17T09:20:30.335Z,20.50
2023-04-17T09:23:02.852Z,20.73
2023-04-17T09:25:31.093Z,20.95
2023-04-17T09:28:11.572Z,20.08
2023-04-17T09:30:40.008Z,20.52
2023-04-17T09:33:08.768Z,21.15
2023-04-17T09:35:40.094Z,21.45
2023-04-17T09:38:08.280Z,19.98
2023-04-17T09:40:39.916Z,19.92
2023-04-17T09:43:10.889Z,20.05
2023-04-17T09:45:42.487Z,18.52
2023-04-17T09:48:12.020Z,19.15
2023-04-17T09:50:40.379Z,18.63
2023-04-17T09:53:09.244Z,19.38
2023-04-17T09:55:38.160Z,19.77
2023-04-17T09:58:07.436Z,20.23
2023-04-17T10:00:37.884Z,20.65
2023-04-17T10:03:05.864Z,20.80
2023-04-17T10:05:33.776Z,19.63
2023-04-17T10:08:01.936Z,21.08
2023-04-17T10:10:33.309Z,20.05
2023-04-17T10:13:02.511Z,19.83
2023-04-17T10:15:30.859Z,20.10
2023-04-17T10:18:20.086Z,19.52
2023-04-17T10:20:48.503Z,19.25
2023-04-17T10:23:31.161Z,19.45
2023-04-17T10:26:41.128Z,19.75
2023-04-17T10:29:08.895Z,20.23
2023-04-17T10:32:17.087Z,20.20
2023-04-17T10:34:46.235Z,20.10
2023-04-17T10:37:15.518Z,19.95
2023-04-17T10:39:59.127Z,18.58
2023-04-17T10:42:27.950Z,19.60
2023-04-17T10:44:58.845Z,19.92
2023-04-17T10:47:32.434Z,19.70
2023-04-17T10:50:03.976Z,19.13
2023-04-17T10:52:43.499Z,18.70
2023-04-17T10:55:14.326Z,19.30
2023-04-17T10:58:03.593Z,19.23
2023-04-17T11:00:33.833Z,19.50
2023-04-17T11:03:02.295Z,18.67
2023-04-17T11:05:32.440Z,20.05
2023-04-17T11:08:00.218Z,18.85
2023-04-17T11:10:28.235Z,17.73
2023-04-17T11:12:56.731Z,17.70
2023-04-17T11:15:28.799Z,17.92
2023-04-17T11:17:57.865Z,17.35
2023-04-17T11:20:26.657Z,16.02
2023-04-17T11:22:56.187Z,16.83
2023-04-17T11:25:25.100Z,16.75
2023-04-17T11:27:53.764Z,17.80
2023-04-17T11:30:28.895Z,16.77
2023-04-17T11:32:58.768Z,16.30
2023-04-17T11:35:30.512Z,16.70
2023-04-17T11:38:12.125Z,17.92
2023-04-17T11:40:46.904Z,18.07
2023-04-17T11:43:14.717Z,17.85
2023-04-17T11:45:44.099Z,18.30
2023-04-17T11:48:12.940Z,18.48
2023-04-17T11:50:42.182Z,18.93
2023-04-17T11:53:14.319Z,18.37
2023-04-17T11:55:42.026Z,18.67
2023-04-17T11:58:11.248Z,17.95
2023-04-17T12:00:40.715Z,18.33
2023-04-17T12:03:34.635Z,18.50
2023-04-17T12:06:04.190Z,17.97
2023-04-17T12:08:44.013Z,18.70
2023-04-17T12:11:17.931Z,17.70
2023-04-17T12:13:46.047Z,18.08
2023-04-17T12:16:13.779Z,17.45
2023-04-17T12:18:41.591Z,17.38
2023-04-17T12:21:09.384Z,17.95
2023-04-17T12:23:38.390Z,17.80
2023-04-17T12:26:06.162Z,17.13
2023-04-17T12:28:33.908Z,16.58
2023-04-17T12:31:01.731Z,15.82
2023-04-17T12:33:29.654Z,16.10
2023-04-17T12:35:57.683Z,16.52
2023-04-17T12:38:25.509Z,15.83
2023-04-17T12:40:54.622Z,15.88
2023-04-17T12:43:22.366Z,14.73
2023-04-17T12:45:50.448Z,14.63
2023-04-17T12:48:18.221Z,14.87
2023-04-17T12:50:45.923Z,14.93
2023-04-17T12:53:16.132Z,14.47
2023-04-17T12:55:44.638Z,13.20
2023-04-17T12:58:14.447Z,13.18
2023-04-17T13:00:43.478Z,12.67
2023-04-17T13:03:12.311Z,12.70
2023-04-17T13:05:40.566Z,12.05
2023-04-17T13:08:12.497Z,11.90
2023-04-17T13:10:40.386Z,11.00
2023-04-17T13:13:08.305Z,11.13
2023-04-17T13:15:37.601Z,10.00
2023-04-17T13:18:05.778Z,10.32
2023-04-17T13:20:33.527Z,9.48
2023-04-17T13:23:01.524Z,10.40
2023-04-17T13:25:30.362Z,10.50
2023-04-17T13:27:58.654Z,10.40
2023-04-17T13:30:26.349Z,9.70
2023-04-17T13:32:55.446Z,8.77
2023-04-17T13:35:23.215Z,9.50
2023-04-17T13:37:50.966Z,10.55
2023-04-17T13:40:18.751Z,11.70
2023-04-17T13:42:46.464Z,11.38
2023-04-17T13:45:14.239Z,10.00
2023-04-17T13:47:41.866Z,10.88
2023-04-17T13:50:11.509Z,10.93
2023-04-17T13:52:39.273Z,10.00
2023-04-17T13:55:11.883Z,9.50
2023-04-17T13:57:39.741Z,9.15
2023-04-17T14:00:10.732Z,8.32
2023-04-17T14:02:38.690Z,8.30
2023-04-17T14:05:07.582Z,9.07
2023-04-17T14:07:36.720Z,8.35
2023-04-17T14:10:04.770Z,8.50
2023-04-17T14:12:32.534Z,8.65
2023-04-17T14:15:00.218Z,8.18
2023-04-17T14:17:27.964Z,8.65
2023-04-17T14:19:55.750Z,8.98
2023-04-17T14:22:23.432Z,8.90
2023-04-17T14:24:52.633Z,8.88
2023-04-17T14:27:20.361Z,9.43
2023-04-17T14:29:48.082Z,9.23
2023-04-17T14:32:15.782Z,9.52
2023-04-17T14:34:43.722Z,9.27
2023-04-17T14:37:13.638Z,9.90
2023-04-17T14:39:43.260Z,9.32
2023-04-17T14:42:12.333Z,9.38
2023-04-17T14:44:40.082Z,8.50
2023-04-17T14:47:08.520Z,9.48
2023-04-17T14:49:36.275Z,8.90
2023-04-17T14:52:03.920Z,9.30
2023-04-17T14:54:31.651Z,8.85
2023-04-17T14:56:59.299Z,8.73
2023-04-17T14:59:28.957Z,8.02
2023-04-17T15:01:56.778Z,8.00
2023-04-17T15:04:24.633Z,7.88
2023-04-17T15:06:52.477Z,7.35
2023-04-17T15:09:20.174Z,7.67
2023-04-17T15:11:47.928Z,8.00
2023-04-17T15:14:15.681Z,7.57
2023-04-17T15:16:44.812Z,8.00
2023-04-17T15:19:12.746Z,7.35
2023-04-17T15:21:40.565Z,7.32
2023-04-17T15:24:08.477Z,7.32
2023-04-17T15:26:36.169Z,7.45
2023-04-17T15:29:04.077Z,7.28
2023-04-17T15:31:31.769Z,6.90
2023-04-17T15:34:00.818Z,7.10
2023-04-17T15:36:31.517Z,7.13
2023-04-17T15:38:59.204Z,6.22
2023-04-17T15:41:26.900Z,6.43
2023-04-17T15:43:54.579Z,5.88
2023-04-17T15:46:22.684Z,6.00
2023-04-17T15:49:05.002Z,5.97
2023-04-17T15:51:39.014Z,6.22
2023-04-17T15:54:07.995Z,6.53
2023-04-17T15:56:35.671Z,5.73
2023-04-17T15:59:03.437Z,6.70
2023-04-17T16:01:31.299Z,6.57
2023-04-17T16:04:40.165Z,6.78
2023-04-17T16:07:07.906Z,4.60
2023-04-17T16:09:35.641Z,3.63
2023-04-17T16:12:05.499Z,3.35
2023-04-17T16:14:33.205Z,3.80
2023-04-17T16:17:01.170Z,3.72
2023-04-17T16:19:28.822Z,4.45
2023-04-17T16:21:57.888Z,4.60
2023-04-17T16:24:26.122Z,4.80
2023-04-17T16:26:57.493Z,4.60
2023-04-17T16:29:25.275Z,4.90
2023-04-17T16:31:53.146Z,5.40
2023-04-17T16:34:21.508Z,4.90
2023-04-17T16:36:49.543Z,4.90
2023-04-17T16:39:18.639Z,5.38
2023-04-17T16:41:46.475Z,4.57
2023-04-17T16:44:14.362Z,4.47
2023-04-17T16:47:03.160Z,4.18
2023-04-17T16:49:29.751Z,4.40
2023-04-17T16:51:57.635Z,4.30
2023-04-17T16:54:26.726Z,4.50
2023-04-17T16:56:54.424Z,4.47
2023-04-17T16:59:22.151Z,5.10
2023-04-17T17:01:50.647Z,4.67
2023-04-17T17:04:18.463Z,4.68
2023-04-17T17:06:46.186Z,5.00
2023-04-17T17:09:14.045Z,5.00
2023-04-17T17:11:43.219Z,4.90
2023-04-17T17:14:10.876Z,4.95
2023-04-17T17:16:38.732Z,4.40
2023-04-17T17:19:06.446Z,4.82
2023-04-17T17:21:34.293Z,4.68
2023-04-17T17:24:01.988Z,4.35
2023-04-17T17:26:29.720Z,4.53
2023-04-17T17:28:58.738Z,4.82
2023-04-17T17:31:26.393Z,4.38
2023-04-17T17:33:54.974Z,4.90
2023-04-17T17:36:22.721Z,4.97
2023-04-17T17:38:55.726Z,4.97
2023-04-17T17:41:23.705Z,4.85
2023-04-17T17:43:51.425Z,4.80
2023-04-17T17:46:21.502Z,4.72
2023-04-17T17:48:49.251Z,4.65
2023-04-17T17:51:16.910Z,5.00
2023-04-17T17:53:44.571Z,5.13
2023-04-17T17:56:14.791Z,4.53
2023-04-17T17:58:48.894Z,4.60
2023-04-17T18:01:17.308Z,4.57
2023-04-17T18:03:48.935Z,4.93
2023-04-17T18:06:17.356Z,4.78
2023-04-17T18:08:45.047Z,4.82
2023-04-17T18:11:13.852Z,4.77
2023-04-17T18:13:41.669Z,5.25
2023-04-17T18:16:09.515Z,5.32
2023-04-17T18:18:39.711Z,5.23
2023-04-17T18:21:12.408Z,5.25
2023-04-17T18:23:40.789Z,5.03
2023-04-17T18:26:10.522Z,4.75
2023-04-17T18:28:39.039Z,4.93
2023-04-17T18:31:06.985Z,5.00
2023-04-17T18:33:34.950Z,4.70
2023-04-17T18:36:03.496Z,4.55
2023-04-17T18:38:33.054Z,4.37
2023-04-17T18:41:02.838Z,4.47
2023-04-17T18:43:32.709Z,4.70
2023-04-17T18:46:04.176Z,4.25
2023-04-17T18:48:32.059Z,4.50
2023-04-17T18:51:00.161Z,4.80
2023-04-17T18:53:27.843Z,5.10
2023-04-17T18:55:57.904Z,4.82
2023-04-17T18:58:27.598Z,5.22
2023-04-17T19:00:55.473Z,4.63
2023-04-17T19:03:23.323Z,4.85
2023-04-17T19:05:52.997Z,4.68
2023-04-17T19:08:22.712Z,4.35
2023-04-17T19:10:50.466Z,4.68
2023-04-17T19:13:21.311Z,4.78
2023-04-17T19:15:51.154Z,4.50
2023-04-17T19:18:18.993Z,4.70
2023-04-17T19:20:47.870Z,4.85
2023-04-17T19:23:15.562Z,4.70
2023-04-17T19:25:43.420Z,5.30
2023-04-17T19:28:11.400Z,5.10
2023-04-17T19:30:40.847Z,5.60
2023-04-17T19:33:08.794Z,5.43
2023-04-17T19:35:36.577Z,6.13
2023-04-17T19:38:04.292Z,5.85
2023-04-17T19:40:32.165Z,6.47
2023-04-17T19:43:01.391Z,5.90
2023-04-17T19:45:29.391Z,6.05
2023-04-17T19:47:58.516Z,6.47
2023-04-17T19:50:27.468Z,6.60
2023-04-17T19:52:55.891Z,6.53
2023-04-17T19:55:23.730Z,6.80
2023-04-17T19:57:52.219Z,6.72
2023-04-17T20:00:20.719Z,6.78
2023-04-17T20:02:48.540Z,7.35
2023-04-17T20:05:18.468Z,6.72
2023-04-17T20:07:46.135Z,6.70
2023-04-17T20:10:13.869Z,6.90
2023-04-17T20:12:41.594Z,6.35
2023-04-17T20:15:10.684Z,5.53
2023-04-17T20:17:38.482Z,5.55
2023-04-17T20:20:07.610Z,5.72
2023-04-17T20:22:36.682Z,6.07
2023-04-17T20:25:04.765Z,5.68
2023-04-17T20:27:32.432Z,5.40
2023-04-17T20:30:00.217Z,4.95
2023-04-17T20:32:27.883Z,5.68
2023-04-17T20:34:55.764Z,5.25
2023-04-17T20:37:23.970Z,5.72
2023-04-17T20:39:53.090Z,5.40
2023-04-17T20:42:20.818Z,5.03
2023-04-17T20:44:48.446Z,5.53
2023-04-17T20:47:16.206Z,5.70
2023-04-17T20:49:43.937Z,5.80
2023-04-17T20:52:11.599Z,5.35
2023-04-17T20:54:39.295Z,5.60
2023-04-17T20:57:08.339Z,5.95
2023-04-17T20:59:37.210Z,5.93
2023-04-17T21:02:05.038Z,5.90
2023-04-17T21:04:33.008Z,6.20
2023-04-17T21:07:01.018Z,5.97
2023-04-17T21:09:28.792Z,6.00
2023-04-17T21:11:56.524Z,6.30
2023-04-17T21:14:25.853Z,6.55
2023-04-17T21:16:56.422Z,6.43
2023-04-17T21:19:25.987Z,6.43
2023-04-17T21:21:53.732Z,6.63
2023-04-17T21:24:21.851Z,6.80
2023-04-17T21:26:49.520Z,6.90
2023-04-17T21:29:17.325Z,7.03
2023-04-17T21:31:46.581Z,6.95
2023-04-17T21:34:14.440Z,6.67
2023-04-17T21:36:42.377Z,6.70
2023-04-17T21:39:10.106Z,7.40
2023-04-17T21:41:38.298Z,6.80
2023-04-17T21:44:06.068Z,7.03
2023-04-17T21:46:33.731Z,7.45
2023-04-17T21:49:02.756Z,7.17
2023-04-17T21:51:31.490Z,7.70
2023-04-17T21:53:59.250Z,7.78
2023-04-17T21:56:28.252Z,7.97
2023-04-17T21:58:58.192Z,7.45
2023-04-17T22:01:25.984Z,7.55
2023-04-17T22:03:56.857Z,7.60
2023-04-17T22:06:31.420Z,8.57
2023-04-17T22:08:59.245Z,8.10
2023-04-17T22:11:29.442Z,7.77
2023-04-17T22:13:57.295Z,7.73
2023-04-17T22:16:25.020Z,7.53
2023-04-17T22:18:52.953Z,7.40
2023-04-17T22:21:58.719Z,7.43
2023-04-17T22:24:44.970Z,8.18
2023-04-17T22:27:49.124Z,7.88
2023-04-17T22:30:34.140Z,7.50
2023-04-17T22:33:20.385Z,7.45
2023-04-17T22:35:48.097Z,7.68
2023-04-17T22:38:35.864Z,7.40
2023-04-17T22:41:21.544Z,8.20
2023-04-17T22:44:07.801Z,7.88
2023-04-17T22:47:30.542Z,7.70
2023-04-17T22:50:17.879Z,7.45
2023-04-17T22:53:21.585Z,7.53
2023-04-17T22:56:26.505Z,8.13
2023-04-17T22:59:49.327Z,7.78
2023-04-17T23:02:36.880Z,7.47
2023-04-17T23:05:23.267Z,7.97
2023-04-17T23:07:51.180Z,8.02
2023-04-17T23:10:19.071Z,7.50
2023-04-17T23:12:46.864Z,7.97
2023-04-17T23:15:14.690Z,8.07
2023-04-17T23:17:43.785Z,7.82
2023-04-17T23:20:12.857Z,8.07
2023-04-17T23:22:40.627Z,7.90
2023-04-17T23:25:09.294Z,8.35
2023-04-17T23:27:37.087Z,8.10
2023-04-17T23:30:05.373Z,8.07
2023-04-17T23:32:33.036Z,7.93
2023-04-17T23:35:02.171Z,8.25
2023-04-17T23:37:30.032Z,8.45
2023-04-17T23:39:57.822Z,8.40
2023-04-17T23:42:25.639Z,8.10
2023-04-17T23:44:53.376Z,8.23
2023-04-17T23:47:21.171Z,7.90
2023-04-17T23:49:48.850Z,7.97
2023-04-17T23:52:18.949Z,8.00
2023-04-17T23:54:46.567Z,8.10
2023-04-17T23:57:14.175Z,7.70
2023-04-17T23:59:42.044Z,7.80
